sensor_id;sensor_type;location;lat;lon;timestamp;P1;durP1;ratioP1;P2;durP2;ratioP2
20814;SDS011;10568;48.176;16.316;2023-07-13T00:02:14;0.95;;;0.90;;
20814;SDS011;10568;48.176;16.316;2023-07-13T00:04:41;1.47;;;1.20;;
20814;SDS011;10568;48.176;16.316;2023-07-13T00:07:07;1.55;;;1.10;;
20814;SDS011;10568;48.176;16.316;2023-07-13T00:09:34;1.05;;;0.85;;
20814;SDS011;10568;48.176;16.316;2023-07-13T00:12:00;1.43;;;1.00;;
20814;SDS011;10568;48.176;16.316;2023-07-13T00:14:28;1.30;;;0.90;;
20814;SDS011;10568;48.176;16.316;2023-07-13T00:16:54;2.17;;;0.90;;
20814;SDS011;10568;48.176;16.316;2023-07-13T00:19:21;2.40;;;0.80;;
20814;SDS011;10568;48.176;16.316;2023-07-13T00:21:47;2.65;;;1.40;;
20814;SDS011;10568;48.176;16.316;2023-07-13T00:24:14;2.80;;;1.10;;
20814;SDS011;10568;48.176;16.316;2023-07-13T00:26:47;1.40;;;0.97;;
20814;SDS011;10568;48.176;16.316;2023-07-13T00:29:13;1.10;;;0.73;;
20814;SDS011;10568;48.176;16.316;2023-07-13T00:31:39;1.87;;;0.80;;
20814;SDS011;10568;48.176;16.316;2023-07-13T00:34:05;1.20;;;0.90;;
20814;SDS011;10568;48.176;16.316;2023-07-13T00:36:31;0.87;;;0.77;;
20814;SDS011;10568;48.176;16.316;2023-07-13T00:38:57;1.27;;;0.63;;
20814;SDS011;10568;48.176;16.316;2023-07-13T00:41:23;1.07;;;0.63;;
20814;SDS011;10568;48.176;16.316;2023-07-13T00:43:49;1.90;;;1.00;;
20814;SDS011;10568;48.176;16.316;2023-07-13T00:46:29;0.83;;;0.80;;
20814;SDS011;10568;48.176;16.316;2023-07-13T00:48:57;0.80;;;0.70;;
20814;SDS011;10568;48.176;16.316;2023-07-13T00:51:28;0.90;;;0.60;;
20814;SDS011;10568;48.176;16.316;2023-07-13T00:53:58;1.50;;;0.70;;
20814;SDS011;10568;48.176;16.316;2023-07-13T00:56:26;0.90;;;0.60;;
20814;SDS011;10568;48.176;16.316;2023-07-13T00:58:53;0.87;;;0.77;;
20814;SDS011;10568;48.176;16.316;2023-07-13T01:01:20;0.83;;;0.70;;
20814;SDS011;10568;48.176;16.316;2023-07-13T01:03:46;1.63;;;0.80;;
20814;SDS011;10568;48.176;16.316;2023-07-13T01:06:11;0.90;;;0.77;;
20814;SDS011;10568;48.176;16.316;2023-07-13T01:08:38;0.87;;;0.70;;
20814;SDS011;10568;48.176;16.316;2023-07-13T01:11:05;1.07;;;0.80;;
20814;SDS011;10568;48.176;16.316;2023-07-13T01:13:33;1.30;;;0.80;;
20814;SDS011;10568;48.176;16.316;2023-07-13T01:16:00;1.13;;;0.70;;
20814;SDS011;10568;48.176;16.316;2023-07-13T01:18:30;2.33;;;0.90;;
20814;SDS011;10568;48.176;16.316;2023-07-13T01:20:58;0.80;;;0.70;;
20814;SDS011;10568;48.176;16.316;2023-07-13T01:23:26;1.03;;;0.67;;
20814;SDS011;10568;48.176;16.316;2023-07-13T01:25:53;1.63;;;0.70;;
20814;SDS011;10568;48.176;16.316;2023-07-13T01:28:20;1.90;;;0.60;;
20814;SDS011;10568;48.176;16.316;2023-07-13T01:30:47;1.93;;;0.70;;
20814;SDS011;10568;48.176;16.316;2023-07-13T01:33:17;1.90;;;0.80;;
20814;SDS011;10568;48.176;16.316;2023-07-13T01:35:44;2.80;;;0.80;;
20814;SDS011;10568;48.176;16.316;2023-07-13T01:38:16;1.10;;;0.90;;
20814;SDS011;10568;48.176;16.316;2023-07-13T01:40:44;1.40;;;0.63;;
20814;SDS011;10568;48.176;16.316;2023-07-13T01:43:10;1.70;;;0.93;;
20814;SDS011;10568;48.176;16.316;2023-07-13T01:45:36;2.40;;;0.73;;
20814;SDS011;10568;48.176;16.316;2023-07-13T01:48:02;0.93;;;0.60;;
20814;SDS011;10568;48.176;16.316;2023-07-13T01:50:28;2.43;;;0.73;;
20814;SDS011;10568;48.176;16.316;2023-07-13T01:52:54;1.37;;;0.87;;
20814;SDS011;10568;48.176;16.316;2023-07-13T01:55:20;1.47;;;0.70;;
20814;SDS011;10568;48.176;16.316;2023-07-13T01:57:47;0.63;;;0.63;;
20814;SDS011;10568;48.176;16.316;2023-07-13T02:00:14;0.87;;;0.77;;
20814;SDS011;10568;48.176;16.316;2023-07-13T02:02:40;1.00;;;0.70;;
20814;SDS011;10568;48.176;16.316;2023-07-13T02:05:06;1.83;;;0.67;;
20814;SDS011;10568;48.176;16.316;2023-07-13T02:07:32;1.13;;;0.80;;
20814;SDS011;10568;48.176;16.316;2023-07-13T02:09:58;2.30;;;1.13;;
20814;SDS011;10568;48.176;16.316;2023-07-13T02:12:23;3.13;;;0.70;;
20814;SDS011;10568;48.176;16.316;2023-07-13T02:14:49;2.30;;;0.90;;
20814;SDS011;10568;48.176;16.316;2023-07-13T02:17:15;2.73;;;0.90;;
20814;SDS011;10568;48.176;16.316;2023-07-13T02:19:40;1.40;;;0.83;;
20814;SDS011;10568;48.176;16.316;2023-07-13T02:22:06;1.30;;;0.98;;
20814;SDS011;10568;48.176;16.316;2023-07-13T02:24:32;2.45;;;0.90;;
20814;SDS011;10568;48.176;16.316;2023-07-13T02:26:58;1.50;;;1.00;;
20814;SDS011;10568;48.176;16.316;2023-07-13T02:29:23;1.43;;;1.00;;
20814;SDS011;10568;48.176;16.316;2023-07-13T02:31:49;1.20;;;0.90;;
20814;SDS011;10568;48.176;16.316;2023-07-13T02:34:30;2.37;;;0.77;;
20814;SDS011;10568;48.176;16.316;2023-07-13T02:36:56;2.28;;;0.90;;
20814;SDS011;10568;48.176;16.316;2023-07-13T02:39:21;2.03;;;0.90;;
20814;SDS011;10568;48.176;16.316;2023-07-13T02:41:47;1.20;;;1.00;;
20814;SDS011;10568;48.176;16.316;2023-07-13T02:44:13;1.17;;;1.00;;
20814;SDS011;10568;48.176;16.316;2023-07-13T02:46:40;1.20;;;0.80;;
20814;SDS011;10568;48.176;16.316;2023-07-13T02:49:06;1.55;;;0.90;;
20814;SDS011;10568;48.176;16.316;2023-07-13T02:54:34;1.63;;;1.10;;
20814;SDS011;10568;48.176;16.316;2023-07-13T02:57:00;1.83;;;1.15;;
20814;SDS011;10568;48.176;16.316;2023-07-13T02:59:26;1.20;;;0.90;;
20814;SDS011;10568;48.176;16.316;2023-07-13T03:01:52;1.63;;;1.08;;
20814;SDS011;10568;48.176;16.316;2023-07-13T03:04:17;2.22;;;1.13;;
20814;SDS011;10568;48.176;16.316;2023-07-13T03:06:44;1.05;;;0.82;;
20814;SDS011;10568;48.176;16.316;2023-07-13T03:09:10;0.85;;;0.80;;
20814;SDS011;10568;48.176;16.316;2023-07-13T03:11:37;0.90;;;0.80;;
20814;SDS011;10568;48.176;16.316;2023-07-13T03:14:03;1.70;;;0.85;;
20814;SDS011;10568;48.176;16.316;2023-07-13T03:16:29;1.60;;;0.88;;
20814;SDS011;10568;48.176;16.316;2023-07-13T03:18:55;2.03;;;1.08;;
20814;SDS011;10568;48.176;16.316;2023-07-13T03:21:21;1.90;;;0.80;;
20814;SDS011;10568;48.176;16.316;2023-07-13T03:23:47;0.98;;;0.75;;
20814;SDS011;10568;48.176;16.316;2023-07-13T03:26:17;1.42;;;0.82;;
20814;SDS011;10568;48.176;16.316;2023-07-13T03:28:45;4.57;;;1.10;;
20814;SDS011;10568;48.176;16.316;2023-07-13T03:31:12;1.30;;;1.17;;
20814;SDS011;10568;48.176;16.316;2023-07-13T03:33:41;1.58;;;1.00;;
20814;SDS011;10568;48.176;16.316;2023-07-13T03:36:14;1.70;;;0.88;;
20814;SDS011;10568;48.176;16.316;2023-07-13T03:38:46;0.98;;;0.88;;
20814;SDS011;10568;48.176;16.316;2023-07-13T03:41:14;1.25;;;1.05;;
20814;SDS011;10568;48.176;16.316;2023-07-13T03:43:40;1.95;;;1.13;;
20814;SDS011;10568;48.176;16.316;2023-07-13T03:46:07;1.27;;;0.87;;
20814;SDS011;10568;48.176;16.316;2023-07-13T03:48:32;2.53;;;1.00;;
20814;SDS011;10568;48.176;16.316;2023-07-13T03:50:58;2.10;;;0.93;;
20814;SDS011;10568;48.176;16.316;2023-07-13T03:53:25;1.80;;;1.20;;
20814;SDS011;10568;48.176;16.316;2023-07-13T03:55:51;1.43;;;0.90;;
20814;SDS011;10568;48.176;16.316;2023-07-13T03:58:26;1.83;;;1.10;;
20814;SDS011;10568;48.176;16.316;2023-07-13T04:00:56;1.30;;;0.93;;
20814;SDS011;10568;48.176;16.316;2023-07-13T04:03:23;1.97;;;1.10;;
20814;SDS011;10568;48.176;16.316;2023-07-13T04:05:50;2.47;;;0.85;;
20814;SDS011;10568;48.176;16.316;2023-07-13T04:08:16;3.07;;;0.93;;
20814;SDS011;10568;48.176;16.316;2023-07-13T04:10:42;2.03;;;1.13;;
20814;SDS011;10568;48.176;16.316;2023-07-13T04:13:08;1.42;;;0.88;;
20814;SDS011;10568;48.176;16.316;2023-07-13T04:15:34;1.45;;;1.20;;
20814;SDS011;10568;48.176;16.316;2023-07-13T04:17:59;2.00;;;1.00;;
20814;SDS011;10568;48.176;16.316;2023-07-13T04:20:25;3.93;;;1.30;;
20814;SDS011;10568;48.176;16.316;2023-07-13T04:22:51;3.07;;;1.30;;
20814;SDS011;10568;48.176;16.316;2023-07-13T04:25:18;4.45;;;1.35;;
20814;SDS011;10568;48.176;16.316;2023-07-13T04:27:45;3.10;;;1.30;;
20814;SDS011;10568;48.176;16.316;2023-07-13T04:30:11;1.53;;;1.20;;
20814;SDS011;10568;48.176;16.316;2023-07-13T04:32:37;1.77;;;0.90;;
20814;SDS011;10568;48.176;16.316;2023-07-13T04:35:03;2.37;;;1.33;;
20814;SDS011;10568;48.176;16.316;2023-07-13T04:37:29;1.60;;;0.90;;
20814;SDS011;10568;48.176;16.316;2023-07-13T04:39:55;3.20;;;1.30;;
20814;SDS011;10568;48.176;16.316;2023-07-13T04:42:21;2.13;;;1.10;;
20814;SDS011;10568;48.176;16.316;2023-07-13T04:44:48;2.30;;;1.20;;
20814;SDS011;10568;48.176;16.316;2023-07-13T04:47:17;2.67;;;0.90;;
20814;SDS011;10568;48.176;16.316;2023-07-13T04:49:43;1.40;;;1.00;;
20814;SDS011;10568;48.176;16.316;2023-07-13T04:52:10;1.93;;;1.20;;
20814;SDS011;10568;48.176;16.316;2023-07-13T04:54:37;1.80;;;0.87;;
20814;SDS011;10568;48.176;16.316;2023-07-13T04:57:03;1.63;;;0.80;;
20814;SDS011;10568;48.176;16.316;2023-07-13T04:59:31;2.23;;;0.90;;
20814;SDS011;10568;48.176;16.316;2023-07-13T05:01:57;1.60;;;1.07;;
20814;SDS011;10568;48.176;16.316;2023-07-13T05:04:25;2.05;;;1.10;;
20814;SDS011;10568;48.176;16.316;2023-07-13T05:06:58;1.23;;;1.02;;
20814;SDS011;10568;48.176;16.316;2023-07-13T05:09:30;1.45;;;0.93;;
20814;SDS011;10568;48.176;16.316;2023-07-13T05:12:03;2.08;;;1.10;;
20814;SDS011;10568;48.176;16.316;2023-07-13T05:14:38;1.00;;;0.80;;
20814;SDS011;10568;48.176;16.316;2023-07-13T05:17:12;1.13;;;1.03;;
20814;SDS011;10568;48.176;16.316;2023-07-13T05:19:42;1.53;;;1.00;;
20814;SDS011;10568;48.176;16.316;2023-07-13T05:22:08;2.40;;;1.17;;
20814;SDS011;10568;48.176;16.316;2023-07-13T05:24:34;1.65;;;0.93;;
20814;SDS011;10568;48.176;16.316;2023-07-13T05:27:00;1.20;;;1.00;;
20814;SDS011;10568;48.176;16.316;2023-07-13T05:29:26;1.53;;;1.00;;
20814;SDS011;10568;48.176;16.316;2023-07-13T05:31:52;1.90;;;1.00;;
20814;SDS011;10568;48.176;16.316;2023-07-13T05:34:18;1.85;;;0.88;;
20814;SDS011;10568;48.176;16.316;2023-07-13T05:36:44;2.03;;;0.80;;
20814;SDS011;10568;48.176;16.316;2023-07-13T05:39:10;0.77;;;0.70;;
20814;SDS011;10568;48.176;16.316;2023-07-13T05:41:36;1.95;;;1.20;;
20814;SDS011;10568;48.176;16.316;2023-07-13T05:44:02;1.25;;;0.70;;
20814;SDS011;10568;48.176;16.316;2023-07-13T05:46:28;1.30;;;0.90;;
20814;SDS011;10568;48.176;16.316;2023-07-13T05:48:54;1.25;;;0.98;;
20814;SDS011;10568;48.176;16.316;2023-07-13T05:51:19;1.75;;;1.00;;
20814;SDS011;10568;48.176;16.316;2023-07-13T05:53:45;0.85;;;0.80;;
20814;SDS011;10568;48.176;16.316;2023-07-13T05:56:11;1.55;;;0.75;;
20814;SDS011;10568;48.176;16.316;2023-07-13T05:58:37;1.77;;;0.93;;
20814;SDS011;10568;48.176;16.316;2023-07-13T06:01:04;2.33;;;1.00;;
20814;SDS011;10568;48.176;16.316;2023-07-13T06:03:33;1.25;;;0.80;;
20814;SDS011;10568;48.176;16.316;2023-07-13T06:05:59;1.00;;;0.70;;
20814;SDS011;10568;48.176;16.316;2023-07-13T06:08:25;1.52;;;0.80;;
20814;SDS011;10568;48.176;16.316;2023-07-13T06:10:52;1.17;;;0.80;;
20814;SDS011;10568;48.176;16.316;2023-07-13T06:13:17;2.75;;;1.05;;
20814;SDS011;10568;48.176;16.316;2023-07-13T06:15:47;1.08;;;0.70;;
20814;SDS011;10568;48.176;16.316;2023-07-13T06:18:16;0.70;;;0.60;;
20814;SDS011;10568;48.176;16.316;2023-07-13T06:20:42;0.43;;;0.40;;
20814;SDS011;10568;48.176;16.316;2023-07-13T06:23:08;1.33;;;0.70;;
20814;SDS011;10568;48.176;16.316;2023-07-13T06:25:33;0.93;;;0.75;;
20814;SDS011;10568;48.176;16.316;2023-07-13T06:27:59;0.88;;;0.63;;
20814;SDS011;10568;48.176;16.316;2023-07-13T06:30:25;2.97;;;0.90;;
20814;SDS011;10568;48.176;16.316;2023-07-13T06:32:51;1.52;;;0.85;;
20814;SDS011;10568;48.176;16.316;2023-07-13T06:35:18;2.22;;;0.90;;
20814;SDS011;10568;48.176;16.316;2023-07-13T06:37:44;1.20;;;0.70;;
20814;SDS011;10568;48.176;16.316;2023-07-13T06:40:10;2.78;;;0.90;;
20814;SDS011;10568;48.176;16.316;2023-07-13T06:42:35;3.38;;;0.70;;
20814;SDS011;10568;48.176;16.316;2023-07-13T06:45:03;0.80;;;0.70;;
20814;SDS011;10568;48.176;16.316;2023-07-13T06:47:29;0.95;;;0.77;;
20814;SDS011;10568;48.176;16.316;2023-07-13T06:49:55;2.17;;;0.60;;
20814;SDS011;10568;48.176;16.316;2023-07-13T06:52:21;0.90;;;0.70;;
20814;SDS011;10568;48.176;16.316;2023-07-13T06:54:47;0.47;;;0.47;;
20814;SDS011;10568;48.176;16.316;2023-07-13T06:57:12;0.52;;;0.38;;
20814;SDS011;10568;48.176;16.316;2023-07-13T06:59:38;1.48;;;0.80;;
20814;SDS011;10568;48.176;16.316;2023-07-13T07:02:04;1.30;;;0.70;;
20814;SDS011;10568;48.176;16.316;2023-07-13T07:04:30;0.70;;;0.50;;
20814;SDS011;10568;48.176;16.316;2023-07-13T07:06:56;0.90;;;0.57;;
20814;SDS011;10568;48.176;16.316;2023-07-13T07:09:21;1.33;;;0.70;;
20814;SDS011;10568;48.176;16.316;2023-07-13T07:11:47;1.45;;;0.80;;
20814;SDS011;10568;48.176;16.316;2023-07-13T07:14:13;2.25;;;0.80;;
20814;SDS011;10568;48.176;16.316;2023-07-13T07:16:38;1.08;;;0.70;;
20814;SDS011;10568;48.176;16.316;2023-07-13T07:19:04;1.10;;;0.77;;
20814;SDS011;10568;48.176;16.316;2023-07-13T07:21:30;2.58;;;0.63;;
20814;SDS011;10568;48.176;16.316;2023-07-13T07:23:56;1.20;;;0.82;;
20814;SDS011;10568;48.176;16.316;2023-07-13T07:26:22;1.13;;;0.55;;
20814;SDS011;10568;48.176;16.316;2023-07-13T07:28:48;0.63;;;0.60;;
20814;SDS011;10568;48.176;16.316;2023-07-13T07:31:14;0.93;;;0.45;;
20814;SDS011;10568;48.176;16.316;2023-07-13T07:33:39;0.68;;;0.60;;
20814;SDS011;10568;48.176;16.316;2023-07-13T07:36:05;1.02;;;0.70;;
20814;SDS011;10568;48.176;16.316;2023-07-13T07:38:31;2.65;;;0.90;;
20814;SDS011;10568;48.176;16.316;2023-07-13T07:40:57;1.25;;;0.57;;
20814;SDS011;10568;48.176;16.316;2023-07-13T07:43:23;3.70;;;0.70;;
20814;SDS011;10568;48.176;16.316;2023-07-13T07:45:48;1.30;;;0.70;;
20814;SDS011;10568;48.176;16.316;2023-07-13T07:48:14;0.93;;;0.70;;
20814;SDS011;10568;48.176;16.316;2023-07-13T07:50:40;0.77;;;0.70;;
20814;SDS011;10568;48.176;16.316;2023-07-13T07:53:06;0.70;;;0.63;;
20814;SDS011;10568;48.176;16.316;2023-07-13T07:55:33;1.13;;;0.60;;
20814;SDS011;10568;48.176;16.316;2023-07-13T07:58:02;0.85;;;0.70;;
20814;SDS011;10568;48.176;16.316;2023-07-13T08:00:28;0.80;;;0.65;;
20814;SDS011;10568;48.176;16.316;2023-07-13T08:02:58;0.68;;;0.60;;
20814;SDS011;10568;48.176;16.316;2023-07-13T08:05:24;1.20;;;0.70;;
20814;SDS011;10568;48.176;16.316;2023-07-13T08:07:51;0.90;;;0.70;;
20814;SDS011;10568;48.176;16.316;2023-07-13T08:10:17;2.45;;;0.80;;
20814;SDS011;10568;48.176;16.316;2023-07-13T08:12:42;0.70;;;0.50;;
20814;SDS011;10568;48.176;16.316;2023-07-13T08:15:10;1.15;;;0.70;;
20814;SDS011;10568;48.176;16.316;2023-07-13T08:17:37;1.65;;;0.70;;
20814;SDS011;10568;48.176;16.316;2023-07-13T08:20:03;2.33;;;0.70;;
20814;SDS011;10568;48.176;16.316;2023-07-13T08:22:29;1.50;;;0.60;;
20814;SDS011;10568;48.176;16.316;2023-07-13T08:24:55;0.73;;;0.70;;
20814;SDS011;10568;48.176;16.316;2023-07-13T08:27:24;0.88;;;0.60;;
20814;SDS011;10568;48.176;16.316;2023-07-13T08:29:52;1.30;;;0.77;;
20814;SDS011;10568;48.176;16.316;2023-07-13T08:32:18;1.00;;;0.70;;
20814;SDS011;10568;48.176;16.316;2023-07-13T08:34:45;1.35;;;0.60;;
20814;SDS011;10568;48.176;16.316;2023-07-13T08:37:11;1.40;;;0.75;;
20814;SDS011;10568;48.176;16.316;2023-07-13T08:39:37;0.90;;;0.60;;
20814;SDS011;10568;48.176;16.316;2023-07-13T08:43:03;0.82;;;0.70;;
20814;SDS011;10568;48.176;16.316;2023-07-13T08:47:37;0.70;;;0.50;;
20814;SDS011;10568;48.176;16.316;2023-07-13T08:50:11;1.00;;;0.88;;
20814;SDS011;10568;48.176;16.316;2023-07-13T08:52:40;0.60;;;0.60;;
20814;SDS011;10568;48.176;16.316;2023-07-13T08:57:41;1.20;;;0.80;;
20814;SDS011;10568;48.176;16.316;2023-07-13T09:00:11;2.47;;;0.95;;
20814;SDS011;10568;48.176;16.316;2023-07-13T09:02:54;1.60;;;0.93;;
20814;SDS011;10568;48.176;16.316;2023-07-13T09:05:30;2.67;;;1.00;;
20814;SDS011;10568;48.176;16.316;2023-07-13T09:10:49;2.47;;;1.40;;
20814;SDS011;10568;48.176;16.316;2023-07-13T09:15:58;2.50;;;1.35;;
20814;SDS011;10568;48.176;16.316;2023-07-13T09:21:03;1.73;;;1.52;;
20814;SDS011;10568;48.176;16.316;2023-07-13T09:23:35;2.55;;;1.40;;
20814;SDS011;10568;48.176;16.316;2023-07-13T09:28:48;2.67;;;1.52;;
20814;SDS011;10568;48.176;16.316;2023-07-13T09:31:19;2.22;;;1.40;;
20814;SDS011;10568;48.176;16.316;2023-07-13T09:33:51;2.47;;;1.50;;
20814;SDS011;10568;48.176;16.316;2023-07-13T09:36:21;2.25;;;1.50;;
20814;SDS011;10568;48.176;16.316;2023-07-13T09:44:37;1.52;;;1.33;;
20814;SDS011;10568;48.176;16.316;2023-07-13T09:47:19;6.07;;;1.60;;
20814;SDS011;10568;48.176;16.316;2023-07-13T09:49:55;2.15;;;1.38;;
20814;SDS011;10568;48.176;16.316;2023-07-13T09:52:23;2.15;;;1.75;;
20814;SDS011;10568;48.176;16.316;2023-07-13T09:54:51;3.38;;;1.58;;
20814;SDS011;10568;48.176;16.316;2023-07-13T09:57:24;3.22;;;1.60;;
20814;SDS011;10568;48.176;16.316;2023-07-13T09:59:52;2.35;;;1.83;;
20814;SDS011;10568;48.176;16.316;2023-07-13T10:02:31;2.72;;;1.80;;
20814;SDS011;10568;48.176;16.316;2023-07-13T10:05:00;2.25;;;1.60;;
20814;SDS011;10568;48.176;16.316;2023-07-13T10:07:31;2.88;;;1.70;;
20814;SDS011;10568;48.176;16.316;2023-07-13T10:10:00;2.65;;;1.70;;
20814;SDS011;10568;48.176;16.316;2023-07-13T10:12:28;2.85;;;1.85;;
20814;SDS011;10568;48.176;16.316;2023-07-13T10:14:56;3.78;;;2.00;;
20814;SDS011;10568;48.176;16.316;2023-07-13T10:17:32;2.25;;;1.80;;
20814;SDS011;10568;48.176;16.316;2023-07-13T10:20:01;2.15;;;1.70;;
20814;SDS011;10568;48.176;16.316;2023-07-13T10:23:13;2.47;;;1.63;;
20814;SDS011;10568;48.176;16.316;2023-07-13T10:25:25;2.38;;;1.48;;
20814;SDS011;10568;48.176;16.316;2023-07-13T10:28:00;3.55;;;1.90;;
20814;SDS011;10568;48.176;16.316;2023-07-13T10:30:48;2.15;;;1.60;;
20814;SDS011;10568;48.176;16.316;2023-07-13T10:33:14;2.95;;;1.85;;
20814;SDS011;10568;48.176;16.316;2023-07-13T10:35:42;4.50;;;1.60;;
20814;SDS011;10568;48.176;16.316;2023-07-13T10:38:12;2.80;;;1.67;;
20814;SDS011;10568;48.176;16.316;2023-07-13T10:40:42;2.85;;;1.90;;
20814;SDS011;10568;48.176;16.316;2023-07-13T10:43:28;4.45;;;1.92;;
20814;SDS011;10568;48.176;16.316;2023-07-13T10:46:16;2.15;;;1.55;;
20814;SDS011;10568;48.176;16.316;2023-07-13T10:48:44;3.13;;;2.00;;
20814;SDS011;10568;48.176;16.316;2023-07-13T10:51:17;3.97;;;2.05;;
20814;SDS011;10568;48.176;16.316;2023-07-13T10:53:46;2.47;;;1.73;;
20814;SDS011;10568;48.176;16.316;2023-07-13T10:56:22;2.20;;;1.70;;
20814;SDS011;10568;48.176;16.316;2023-07-13T10:59:27;2.05;;;1.85;;
20814;SDS011;10568;48.176;16.316;2023-07-13T11:04:29;2.80;;;2.08;;
20814;SDS011;10568;48.176;16.316;2023-07-13T11:07:10;2.00;;;1.75;;
20814;SDS011;10568;48.176;16.316;2023-07-13T11:10:04;1.95;;;1.73;;
20814;SDS011;10568;48.176;16.316;2023-07-13T11:15:26;3.58;;;2.30;;
20814;SDS011;10568;48.176;16.316;2023-07-13T11:18:12;2.40;;;1.50;;
20814;SDS011;10568;48.176;16.316;2023-07-13T11:20:48;2.80;;;1.85;;
20814;SDS011;10568;48.176;16.316;2023-07-13T11:25:43;2.35;;;1.77;;
20814;SDS011;10568;48.176;16.316;2023-07-13T11:36:14;2.10;;;1.48;;
20814;SDS011;10568;48.176;16.316;2023-07-13T11:38:51;2.38;;;1.70;;
20814;SDS011;10568;48.176;16.316;2023-07-13T11:41:27;2.70;;;1.65;;
20814;SDS011;10568;48.176;16.316;2023-07-13T11:46:52;1.85;;;1.48;;
20814;SDS011;10568;48.176;16.316;2023-07-13T11:49:20;1.80;;;1.60;;
20814;SDS011;10568;48.176;16.316;2023-07-13T11:51:47;2.70;;;1.70;;
20814;SDS011;10568;48.176;16.316;2023-07-13T11:54:30;1.73;;;1.38;;
20814;SDS011;10568;48.176;16.316;2023-07-13T11:57:02;1.75;;;1.30;;
20814;SDS011;10568;48.176;16.316;2023-07-13T11:59:37;2.25;;;1.63;;
20814;SDS011;10568;48.176;16.316;2023-07-13T12:02:08;2.05;;;1.38;;
20814;SDS011;10568;48.176;16.316;2023-07-13T12:04:42;1.70;;;1.20;;
20814;SDS011;10568;48.176;16.316;2023-07-13T12:07:16;2.40;;;1.40;;
20814;SDS011;10568;48.176;16.316;2023-07-13T12:09:43;2.67;;;1.58;;
20814;SDS011;10568;48.176;16.316;2023-07-13T12:12:13;1.98;;;1.40;;
20814;SDS011;10568;48.176;16.316;2023-07-13T12:14:42;3.35;;;1.50;;
20814;SDS011;10568;48.176;16.316;2023-07-13T12:17:09;2.42;;;1.45;;
20814;SDS011;10568;48.176;16.316;2023-07-13T12:19:50;2.00;;;1.40;;
20814;SDS011;10568;48.176;16.316;2023-07-13T12:22:18;2.83;;;1.58;;
20814;SDS011;10568;48.176;16.316;2023-07-13T12:24:45;3.00;;;1.42;;
20814;SDS011;10568;48.176;16.316;2023-07-13T12:27:23;2.08;;;1.42;;
20814;SDS011;10568;48.176;16.316;2023-07-13T12:30:04;2.05;;;1.42;;
20814;SDS011;10568;48.176;16.316;2023-07-13T12:32:55;2.65;;;1.40;;
20814;SDS011;10568;48.176;16.316;2023-07-13T12:35:46;2.05;;;1.42;;
20814;SDS011;10568;48.176;16.316;2023-07-13T12:38:14;4.72;;;1.75;;
20814;SDS011;10568;48.176;16.316;2023-07-13T12:40:41;1.75;;;1.17;;
20814;SDS011;10568;48.176;16.316;2023-07-13T12:43:13;1.40;;;1.20;;
20814;SDS011;10568;48.176;16.316;2023-07-13T12:45:54;1.73;;;1.42;;
20814;SDS011;10568;48.176;16.316;2023-07-13T12:48:25;2.28;;;1.52;;
20814;SDS011;10568;48.176;16.316;2023-07-13T12:50:51;1.50;;;1.30;;
20814;SDS011;10568;48.176;16.316;2023-07-13T12:53:23;1.73;;;1.58;;
20814;SDS011;10568;48.176;16.316;2023-07-13T12:55:56;1.80;;;1.30;;
20814;SDS011;10568;48.176;16.316;2023-07-13T12:58:28;1.63;;;1.20;;
20814;SDS011;10568;48.176;16.316;2023-07-13T13:00:58;4.88;;;1.90;;
20814;SDS011;10568;48.176;16.316;2023-07-13T13:03:30;2.58;;;1.40;;
20814;SDS011;10568;48.176;16.316;2023-07-13T13:08:48;1.90;;;1.70;;
20814;SDS011;10568;48.176;16.316;2023-07-13T13:11:16;1.50;;;1.30;;
20814;SDS011;10568;48.176;16.316;2023-07-13T13:13:44;2.05;;;1.50;;
20814;SDS011;10568;48.176;16.316;2023-07-13T13:16:19;7.30;;;1.48;;
20814;SDS011;10568;48.176;16.316;2023-07-13T13:21:46;1.60;;;1.20;;
20814;SDS011;10568;48.176;16.316;2023-07-13T13:24:16;1.98;;;1.48;;
20814;SDS011;10568;48.176;16.316;2023-07-13T13:26:44;3.85;;;1.60;;
20814;SDS011;10568;48.176;16.316;2023-07-13T13:29:14;2.60;;;1.67;;
20814;SDS011;10568;48.176;16.316;2023-07-13T13:31:50;1.77;;;1.50;;
20814;SDS011;10568;48.176;16.316;2023-07-13T13:34:18;1.35;;;1.23;;
20814;SDS011;10568;48.176;16.316;2023-07-13T13:36:48;2.83;;;1.60;;
20814;SDS011;10568;48.176;16.316;2023-07-13T13:39:25;4.18;;;1.42;;
20814;SDS011;10568;48.176;16.316;2023-07-13T13:41:54;3.17;;;1.40;;
20814;SDS011;10568;48.176;16.316;2023-07-13T13:44:21;1.67;;;1.30;;
20814;SDS011;10568;48.176;16.316;2023-07-13T13:46:50;2.08;;;1.30;;
20814;SDS011;10568;48.176;16.316;2023-07-13T13:49:18;1.52;;;1.20;;
20814;SDS011;10568;48.176;16.316;2023-07-13T13:51:46;2.05;;;1.58;;
20814;SDS011;10568;48.176;16.316;2023-07-13T13:54:13;2.08;;;1.55;;
20814;SDS011;10568;48.176;16.316;2023-07-13T13:56:44;1.52;;;1.30;;
20814;SDS011;10568;48.176;16.316;2023-07-13T13:59:13;2.88;;;1.40;;
20814;SDS011;10568;48.176;16.316;2023-07-13T14:01:40;2.53;;;1.23;;
20814;SDS011;10568;48.176;16.316;2023-07-13T14:04:09;3.25;;;1.27;;
20814;SDS011;10568;48.176;16.316;2023-07-13T14:06:43;1.55;;;1.20;;
20814;SDS011;10568;48.176;16.316;2023-07-13T14:09:11;2.67;;;1.40;;
20814;SDS011;10568;48.176;16.316;2023-07-13T14:11:38;1.48;;;1.30;;
20814;SDS011;10568;48.176;16.316;2023-07-13T14:14:16;1.30;;;1.08;;
20814;SDS011;10568;48.176;16.316;2023-07-13T14:16:47;1.92;;;1.30;;
20814;SDS011;10568;48.176;16.316;2023-07-13T14:19:18;1.90;;;1.38;;
20814;SDS011;10568;48.176;16.316;2023-07-13T14:21:44;2.42;;;1.27;;
20814;SDS011;10568;48.176;16.316;2023-07-13T14:24:09;2.95;;;1.63;;
20814;SDS011;10568;48.176;16.316;2023-07-13T14:26:37;2.75;;;1.58;;
20814;SDS011;10568;48.176;16.316;2023-07-13T14:29:08;1.65;;;1.40;;
20814;SDS011;10568;48.176;16.316;2023-07-13T14:31:39;1.30;;;1.20;;
20814;SDS011;10568;48.176;16.316;2023-07-13T14:34:05;1.20;;;1.08;;
20814;SDS011;10568;48.176;16.316;2023-07-13T14:36:33;3.05;;;1.58;;
20814;SDS011;10568;48.176;16.316;2023-07-13T14:39:11;1.27;;;1.17;;
20814;SDS011;10568;48.176;16.316;2023-07-13T14:41:39;1.77;;;1.40;;
20814;SDS011;10568;48.176;16.316;2023-07-13T14:44:10;2.65;;;1.20;;
20814;SDS011;10568;48.176;16.316;2023-07-13T14:46:40;2.15;;;1.23;;
20814;SDS011;10568;48.176;16.316;2023-07-13T14:51:36;2.10;;;1.40;;
20814;SDS011;10568;48.176;16.316;2023-07-13T14:54:03;3.17;;;1.30;;
20814;SDS011;10568;48.176;16.316;2023-07-13T14:56:30;1.42;;;1.33;;
20814;SDS011;10568;48.176;16.316;2023-07-13T14:58:56;1.42;;;1.27;;
20814;SDS011;10568;48.176;16.316;2023-07-13T15:01:22;3.00;;;1.55;;
20814;SDS011;10568;48.176;16.316;2023-07-13T15:03:49;3.10;;;1.40;;
20814;SDS011;10568;48.176;16.316;2023-07-13T15:06:17;1.77;;;1.13;;
20814;SDS011;10568;48.176;16.316;2023-07-13T15:08:44;3.90;;;1.30;;
20814;SDS011;10568;48.176;16.316;2023-07-13T15:11:11;1.20;;;1.10;;
20814;SDS011;10568;48.176;16.316;2023-07-13T15:13:38;4.40;;;1.50;;
20814;SDS011;10568;48.176;16.316;2023-07-13T15:16:10;1.52;;;1.33;;
20814;SDS011;10568;48.176;16.316;2023-07-13T15:18:44;2.42;;;0.93;;
20814;SDS011;10568;48.176;16.316;2023-07-13T15:21:11;2.95;;;1.20;;
20814;SDS011;10568;48.176;16.316;2023-07-13T15:23:45;2.20;;;1.42;;
20814;SDS011;10568;48.176;16.316;2023-07-13T15:26:12;1.35;;;1.10;;
20814;SDS011;10568;48.176;16.316;2023-07-13T15:28:39;1.67;;;1.40;;
20814;SDS011;10568;48.176;16.316;2023-07-13T15:31:26;2.17;;;1.27;;
20814;SDS011;10568;48.176;16.316;2023-07-13T15:33:54;2.47;;;1.52;;
20814;SDS011;10568;48.176;16.316;2023-07-13T15:36:22;2.83;;;1.58;;